sensor_id;sensor_type;location;lat;lon;timestamp;P1;durP1;ratioP1;P2;durP2;ratioP2
35550;SDS011;21655;46.056;13.616;2023-07-28T00:02:03;4.90;;;1.90;;
35550;SDS011;21655;46.056;13.616;2023-07-28T00:04:29;6.32;;;1.80;;
35550;SDS011;21655;46.056;13.616;2023-07-28T00:06:54;6.57;;;2.13;;
35550;SDS011;21655;46.056;13.616;2023-07-28T00:09:20;7.60;;;2.20;;
35550;SDS011;21655;46.056;13.616;2023-07-28T00:11:45;4.97;;;1.70;;
35550;SDS011;21655;46.056;13.616;2023-07-28T00:14:11;4.35;;;1.60;;
35550;SDS011;21655;46.056;13.616;2023-07-28T00:16:36;6.03;;;1.60;;
35550;SDS011;21655;46.056;13.616;2023-07-28T00:19:02;9.88;;;2.10;;
35550;SDS011;21655;46.056;13.616;2023-07-28T00:21:28;6.57;;;2.00;;
35550;SDS011;21655;46.056;13.616;2023-07-28T00:23:53;5.22;;;1.98;;
35550;SDS011;21655;46.056;13.616;2023-07-28T00:26:19;5.45;;;1.50;;
35550;SDS011;21655;46.056;13.616;2023-07-28T00:28:44;8.02;;;2.00;;
35550;SDS011;21655;46.056;13.616;2023-07-28T00:31:09;8.80;;;2.28;;
35550;SDS011;21655;46.056;13.616;2023-07-28T00:33:36;5.78;;;2.10;;
35550;SDS011;21655;46.056;13.616;2023-07-28T00:36:02;9.40;;;2.00;;
35550;SDS011;21655;46.056;13.616;2023-07-28T00:38:27;7.35;;;1.75;;
35550;SDS011;21655;46.056;13.616;2023-07-28T00:40:53;4.20;;;1.80;;
35550;SDS011;21655;46.056;13.616;2023-07-28T00:43:18;3.90;;;1.90;;
35550;SDS011;21655;46.056;13.616;2023-07-28T00:45:43;4.40;;;2.10;;
35550;SDS011;21655;46.056;13.616;2023-07-28T00:48:11;6.40;;;2.50;;
35550;SDS011;21655;46.056;13.616;2023-07-28T00:50:39;7.85;;;2.60;;
35550;SDS011;21655;46.056;13.616;2023-07-28T00:53:09;9.52;;;2.95;;
35550;SDS011;21655;46.056;13.616;2023-07-28T00:55:35;11.80;;;2.33;;
35550;SDS011;21655;46.056;13.616;2023-07-28T00:58:01;6.65;;;1.98;;
35550;SDS011;21655;46.056;13.616;2023-07-28T01:00:26;3.90;;;1.85;;
35550;SDS011;21655;46.056;13.616;2023-07-28T01:02:51;6.43;;;2.75;;
35550;SDS011;21655;46.056;13.616;2023-07-28T01:05:17;5.93;;;1.92;;
35550;SDS011;21655;46.056;13.616;2023-07-28T01:10:22;5.45;;;2.25;;
35550;SDS011;21655;46.056;13.616;2023-07-28T01:12:51;4.75;;;1.95;;
35550;SDS011;21655;46.056;13.616;2023-07-28T01:15:17;7.03;;;2.38;;
35550;SDS011;21655;46.056;13.616;2023-07-28T01:17:42;4.00;;;1.80;;
35550;SDS011;21655;46.056;13.616;2023-07-28T01:20:08;5.68;;;1.70;;
35550;SDS011;21655;46.056;13.616;2023-07-28T01:28:02;9.07;;;2.22;;
35550;SDS011;21655;46.056;13.616;2023-07-28T01:30:29;6.22;;;2.30;;
35550;SDS011;21655;46.056;13.616;2023-07-28T01:32:55;5.90;;;2.20;;
35550;SDS011;21655;46.056;13.616;2023-07-28T01:35:21;8.25;;;2.88;;
35550;SDS011;21655;46.056;13.616;2023-07-28T01:37:48;9.27;;;2.25;;
35550;SDS011;21655;46.056;13.616;2023-07-28T01:40:18;3.72;;;1.75;;
35550;SDS011;21655;46.056;13.616;2023-07-28T01:42:44;6.75;;;2.28;;
35550;SDS011;21655;46.056;13.616;2023-07-28T01:45:10;4.90;;;2.20;;
35550;SDS011;21655;46.056;13.616;2023-07-28T01:47:36;6.47;;;2.40;;
35550;SDS011;21655;46.056;13.616;2023-07-28T01:50:01;6.00;;;2.10;;
35550;SDS011;21655;46.056;13.616;2023-07-28T01:52:27;3.85;;;1.73;;
35550;SDS011;21655;46.056;13.616;2023-07-28T01:54:52;5.70;;;2.00;;
35550;SDS011;21655;46.056;13.616;2023-07-28T01:57:17;7.95;;;2.10;;
35550;SDS011;21655;46.056;13.616;2023-07-28T01:59:43;12.23;;;2.85;;
35550;SDS011;21655;46.056;13.616;2023-07-28T02:02:09;6.38;;;2.28;;
35550;SDS011;21655;46.056;13.616;2023-07-28T02:04:34;6.45;;;1.88;;
35550;SDS011;21655;46.056;13.616;2023-07-28T02:07:00;5.38;;;2.13;;
35550;SDS011;21655;46.056;13.616;2023-07-28T02:09:25;9.52;;;2.03;;
35550;SDS011;21655;46.056;13.616;2023-07-28T02:11:51;5.72;;;1.90;;
35550;SDS011;21655;46.056;13.616;2023-07-28T02:14:17;8.68;;;2.00;;
35550;SDS011;21655;46.056;13.616;2023-07-28T02:16:43;5.93;;;2.15;;
35550;SDS011;21655;46.056;13.616;2023-07-28T02:19:08;5.30;;;2.22;;
35550;SDS011;21655;46.056;13.616;2023-07-28T02:21:33;8.07;;;2.13;;
35550;SDS011;21655;46.056;13.616;2023-07-28T02:23:59;5.15;;;2.13;;
35550;SDS011;21655;46.056;13.616;2023-07-28T02:26:25;6.85;;;1.92;;
35550;SDS011;21655;46.056;13.616;2023-07-28T02:28:50;4.38;;;2.10;;
35550;SDS011;21655;46.056;13.616;2023-07-28T02:31:16;5.85;;;2.10;;
35550;SDS011;21655;46.056;13.616;2023-07-28T02:33:41;6.70;;;2.00;;
35550;SDS011;21655;46.056;13.616;2023-07-28T02:36:07;8.55;;;1.98;;
35550;SDS011;21655;46.056;13.616;2023-07-28T02:38:32;6.10;;;1.88;;
35550;SDS011;21655;46.056;13.616;2023-07-28T02:40:58;3.40;;;1.85;;
35550;SDS011;21655;46.056;13.616;2023-07-28T02:43:23;4.95;;;1.90;;
35550;SDS011;21655;46.056;13.616;2023-07-28T02:45:53;3.72;;;1.90;;
35550;SDS011;21655;46.056;13.616;2023-07-28T02:48:19;6.43;;;1.90;;
35550;SDS011;21655;46.056;13.616;2023-07-28T02:50:46;3.67;;;1.92;;
35550;SDS011;21655;46.056;13.616;2023-07-28T02:53:13;11.70;;;2.45;;
35550;SDS011;21655;46.056;13.616;2023-07-28T02:55:42;7.60;;;1.92;;
35550;SDS011;21655;46.056;13.616;2023-07-28T02:58:11;7.65;;;2.20;;
35550;SDS011;21655;46.056;13.616;2023-07-28T03:00:38;9.02;;;2.20;;
35550;SDS011;21655;46.056;13.616;2023-07-28T03:03:07;8.90;;;1.98;;
35550;SDS011;21655;46.056;13.616;2023-07-28T03:05:35;5.32;;;1.92;;
35550;SDS011;21655;46.056;13.616;2023-07-28T03:08:01;3.90;;;2.08;;
35550;SDS011;21655;46.056;13.616;2023-07-28T03:10:26;7.32;;;1.85;;
35550;SDS011;21655;46.056;13.616;2023-07-28T03:12:52;6.88;;;2.00;;
35550;SDS011;21655;46.056;13.616;2023-07-28T03:15:17;8.77;;;2.33;;
35550;SDS011;21655;46.056;13.616;2023-07-28T03:17:42;6.63;;;2.20;;
35550;SDS011;21655;46.056;13.616;2023-07-28T03:20:08;7.60;;;1.80;;
35550;SDS011;21655;46.056;13.616;2023-07-28T03:22:34;3.75;;;1.92;;
35550;SDS011;21655;46.056;13.616;2023-07-28T03:24:59;5.47;;;1.85;;
35550;SDS011;21655;46.056;13.616;2023-07-28T03:27:24;7.78;;;2.00;;
35550;SDS011;21655;46.056;13.616;2023-07-28T03:29:50;6.15;;;2.10;;
35550;SDS011;21655;46.056;13.616;2023-07-28T03:32:16;6.15;;;2.00;;
35550;SDS011;21655;46.056;13.616;2023-07-28T03:34:41;8.88;;;2.35;;
35550;SDS011;21655;46.056;13.616;2023-07-28T03:37:07;7.38;;;2.63;;
35550;SDS011;21655;46.056;13.616;2023-07-28T03:39:33;6.57;;;1.70;;
35550;SDS011;21655;46.056;13.616;2023-07-28T03:41:59;7.50;;;2.25;;
35550;SDS011;21655;46.056;13.616;2023-07-28T03:44:24;6.88;;;2.13;;
35550;SDS011;21655;46.056;13.616;2023-07-28T03:46:50;6.28;;;2.20;;
35550;SDS011;21655;46.056;13.616;2023-07-28T03:49:15;7.45;;;2.45;;
35550;SDS011;21655;46.056;13.616;2023-07-28T03:51:41;3.80;;;1.80;;
35550;SDS011;21655;46.056;13.616;2023-07-28T03:54:06;3.97;;;2.03;;
35550;SDS011;21655;46.056;13.616;2023-07-28T03:56:32;11.00;;;2.47;;
35550;SDS011;21655;46.056;13.616;2023-07-28T03:58:57;8.85;;;2.38;;
35550;SDS011;21655;46.056;13.616;2023-07-28T04:01:22;6.10;;;2.28;;
35550;SDS011;21655;46.056;13.616;2023-07-28T04:03:49;10.82;;;2.10;;
35550;SDS011;21655;46.056;13.616;2023-07-28T04:06:15;6.38;;;2.10;;
35550;SDS011;21655;46.056;13.616;2023-07-28T04:08:40;8.05;;;2.00;;
35550;SDS011;21655;46.056;13.616;2023-07-28T04:11:06;9.45;;;2.10;;
35550;SDS011;21655;46.056;13.616;2023-07-28T04:13:32;3.40;;;1.83;;
35550;SDS011;21655;46.056;13.616;2023-07-28T04:15:58;5.63;;;1.73;;
35550;SDS011;21655;46.056;13.616;2023-07-28T04:18:24;8.93;;;2.00;;
35550;SDS011;21655;46.056;13.616;2023-07-28T04:20:49;4.43;;;2.10;;
35550;SDS011;21655;46.056;13.616;2023-07-28T04:23:15;9.32;;;2.08;;
35550;SDS011;21655;46.056;13.616;2023-07-28T04:25:40;12.02;;;2.20;;
35550;SDS011;21655;46.056;13.616;2023-07-28T04:28:05;4.70;;;2.05;;
35550;SDS011;21655;46.056;13.616;2023-07-28T04:30:31;5.03;;;1.80;;
35550;SDS011;21655;46.056;13.616;2023-07-28T04:32:57;4.63;;;1.83;;
35550;SDS011;21655;46.056;13.616;2023-07-28T04:35:22;5.50;;;1.90;;
35550;SDS011;21655;46.056;13.616;2023-07-28T04:37:47;12.95;;;2.47;;
35550;SDS011;21655;46.056;13.616;2023-07-28T04:40:13;8.52;;;2.72;;
35550;SDS011;21655;46.056;13.616;2023-07-28T04:42:38;5.72;;;2.10;;
35550;SDS011;21655;46.056;13.616;2023-07-28T04:45:04;6.45;;;2.03;;
35550;SDS011;21655;46.056;13.616;2023-07-28T04:47:30;4.38;;;2.05;;
35550;SDS011;21655;46.056;13.616;2023-07-28T04:49:55;7.80;;;2.10;;
35550;SDS011;21655;46.056;13.616;2023-07-28T04:52:21;6.30;;;1.90;;
35550;SDS011;21655;46.056;13.616;2023-07-28T04:54:46;4.43;;;1.73;;
35550;SDS011;21655;46.056;13.616;2023-07-28T04:57:12;7.50;;;1.92;;
35550;SDS011;21655;46.056;13.616;2023-07-28T04:59:37;3.47;;;1.77;;
35550;SDS011;21655;46.056;13.616;2023-07-28T05:02:03;4.05;;;1.90;;
35550;SDS011;21655;46.056;13.616;2023-07-28T05:04:28;4.90;;;1.88;;
35550;SDS011;21655;46.056;13.616;2023-07-28T05:06:54;4.35;;;1.98;;
35550;SDS011;21655;46.056;13.616;2023-07-28T05:09:19;6.93;;;2.00;;
35550;SDS011;21655;46.056;13.616;2023-07-28T05:11:45;3.42;;;1.85;;
35550;SDS011;21655;46.056;13.616;2023-07-28T05:14:10;7.10;;;2.03;;
35550;SDS011;21655;46.056;13.616;2023-07-28T05:16:36;5.03;;;2.03;;
35550;SDS011;21655;46.056;13.616;2023-07-28T05:19:01;8.27;;;1.98;;
35550;SDS011;21655;46.056;13.616;2023-07-28T05:21:27;2.65;;;1.50;;
35550;SDS011;21655;46.056;13.616;2023-07-28T05:23:52;6.57;;;1.55;;
35550;SDS011;21655;46.056;13.616;2023-07-28T05:26:17;7.72;;;2.20;;
35550;SDS011;21655;46.056;13.616;2023-07-28T05:28:43;3.58;;;1.60;;
35550;SDS011;21655;46.056;13.616;2023-07-28T05:31:08;5.30;;;2.42;;
35550;SDS011;21655;46.056;13.616;2023-07-28T05:33:34;6.25;;;1.90;;
35550;SDS011;21655;46.056;13.616;2023-07-28T05:36:02;8.35;;;1.90;;
35550;SDS011;21655;46.056;13.616;2023-07-28T05:38:28;6.47;;;2.80;;
35550;SDS011;21655;46.056;13.616;2023-07-28T05:41:00;7.38;;;2.33;;
35550;SDS011;21655;46.056;13.616;2023-07-28T05:43:28;13.25;;;3.15;;
35550;SDS011;21655;46.056;13.616;2023-07-28T05:45:57;7.43;;;2.80;;
35550;SDS011;21655;46.056;13.616;2023-07-28T05:48:23;4.97;;;2.47;;
35550;SDS011;21655;46.056;13.616;2023-07-28T05:50:48;9.68;;;2.67;;
35550;SDS011;21655;46.056;13.616;2023-07-28T05:53:16;9.15;;;2.70;;
35550;SDS011;21655;46.056;13.616;2023-07-28T05:55:41;7.45;;;3.20;;
35550;SDS011;21655;46.056;13.616;2023-07-28T05:58:07;6.72;;;2.40;;
35550;SDS011;21655;46.056;13.616;2023-07-28T06:00:32;8.15;;;1.95;;
35550;SDS011;21655;46.056;13.616;2023-07-28T06:02:57;9.68;;;2.30;;
35550;SDS011;21655;46.056;13.616;2023-07-28T06:05:23;6.82;;;1.83;;
35550;SDS011;21655;46.056;13.616;2023-07-28T06:07:48;8.30;;;2.53;;
35550;SDS011;21655;46.056;13.616;2023-07-28T06:10:13;13.30;;;2.53;;
35550;SDS011;21655;46.056;13.616;2023-07-28T06:12:39;6.18;;;1.98;;
35550;SDS011;21655;46.056;13.616;2023-07-28T06:15:05;6.20;;;2.13;;
35550;SDS011;21655;46.056;13.616;2023-07-28T06:17:30;6.32;;;1.90;;
35550;SDS011;21655;46.056;13.616;2023-07-28T06:19:56;4.90;;;1.80;;
35550;SDS011;21655;46.056;13.616;2023-07-28T06:22:21;4.68;;;1.67;;
35550;SDS011;21655;46.056;13.616;2023-07-28T06:24:48;10.00;;;2.00;;
35550;SDS011;21655;46.056;13.616;2023-07-28T06:27:13;3.83;;;1.98;;
35550;SDS011;21655;46.056;13.616;2023-07-28T06:29:39;8.18;;;1.92;;
35550;SDS011;21655;46.056;13.616;2023-07-28T06:32:05;8.48;;;1.88;;
35550;SDS011;21655;46.056;13.616;2023-07-28T06:34:30;5.43;;;1.75;;
35550;SDS011;21655;46.056;13.616;2023-07-28T06:36:56;8.88;;;2.30;;
35550;SDS011;21655;46.056;13.616;2023-07-28T06:39:22;9.07;;;2.13;;
35550;SDS011;21655;46.056;13.616;2023-07-28T06:41:49;4.93;;;2.00;;
35550;SDS011;21655;46.056;13.616;2023-07-28T06:44:14;10.93;;;2.15;;
35550;SDS011;21655;46.056;13.616;2023-07-28T06:46:40;6.35;;;2.25;;
35550;SDS011;21655;46.056;13.616;2023-07-28T06:49:05;6.63;;;1.98;;
35550;SDS011;21655;46.056;13.616;2023-07-28T06:51:30;5.88;;;1.92;;
35550;SDS011;21655;46.056;13.616;2023-07-28T06:53:56;20.98;;;3.10;;
35550;SDS011;21655;46.056;13.616;2023-07-28T06:56:21;10.18;;;2.05;;
35550;SDS011;21655;46.056;13.616;2023-07-28T06:58:47;14.50;;;2.67;;
35550;SDS011;21655;46.056;13.616;2023-07-28T07:01:12;10.57;;;2.10;;
35550;SDS011;21655;46.056;13.616;2023-07-28T07:03:37;7.20;;;1.90;;
35550;SDS011;21655;46.056;13.616;2023-07-28T07:06:03;11.50;;;2.33;;
35550;SDS011;21655;46.056;13.616;2023-07-28T07:08:28;10.02;;;2.30;;
35550;SDS011;21655;46.056;13.616;2023-07-28T07:10:54;6.88;;;2.50;;
35550;SDS011;21655;46.056;13.616;2023-07-28T07:13:20;9.15;;;2.40;;
35550;SDS011;21655;46.056;13.616;2023-07-28T07:15:45;5.07;;;2.10;;
35550;SDS011;21655;46.056;13.616;2023-07-28T07:18:11;5.72;;;2.10;;
35550;SDS011;21655;46.056;13.616;2023-07-28T07:20:37;6.32;;;2.05;;
35550;SDS011;21655;46.056;13.616;2023-07-28T07:23:03;11.90;;;2.42;;
35550;SDS011;21655;46.056;13.616;2023-07-28T07:25:29;7.35;;;1.83;;
35550;SDS011;21655;46.056;13.616;2023-07-28T07:27:54;6.43;;;1.80;;
35550;SDS011;21655;46.056;13.616;2023-07-28T07:30:20;12.27;;;2.80;;
35550;SDS011;21655;46.056;13.616;2023-07-28T07:32:46;11.50;;;1.95;;
35550;SDS011;21655;46.056;13.616;2023-07-28T07:35:11;7.60;;;2.13;;
35550;SDS011;21655;46.056;13.616;2023-07-28T07:37:37;11.13;;;2.25;;
35550;SDS011;21655;46.056;13.616;2023-07-28T07:40:03;12.38;;;2.33;;
35550;SDS011;21655;46.056;13.616;2023-07-28T07:42:39;9.02;;;2.55;;
35550;SDS011;21655;46.056;13.616;2023-07-28T07:45:07;10.45;;;2.38;;
35550;SDS011;21655;46.056;13.616;2023-07-28T07:47:34;7.50;;;1.85;;
35550;SDS011;21655;46.056;13.616;2023-07-28T07:50:00;8.52;;;2.35;;
35550;SDS011;21655;46.056;13.616;2023-07-28T07:52:25;20.45;;;2.33;;
35550;SDS011;21655;46.056;13.616;2023-07-28T07:54:51;7.57;;;1.60;;
35550;SDS011;21655;46.056;13.616;2023-07-28T07:57:16;7.53;;;1.55;;
35550;SDS011;21655;46.056;13.616;2023-07-28T07:59:42;9.85;;;1.85;;
35550;SDS011;21655;46.056;13.616;2023-07-28T08:02:08;8.85;;;1.60;;
35550;SDS011;21655;46.056;13.616;2023-07-28T08:04:33;13.55;;;2.47;;
35550;SDS011;21655;46.056;13.616;2023-07-28T08:06:59;9.68;;;3.28;;
35550;SDS011;21655;46.056;13.616;2023-07-28T08:09:24;7.68;;;1.95;;
35550;SDS011;21655;46.056;13.616;2023-07-28T08:11:50;10.55;;;1.70;;
35550;SDS011;21655;46.056;13.616;2023-07-28T08:14:15;7.35;;;1.75;;
35550;SDS011;21655;46.056;13.616;2023-07-28T08:16:41;9.93;;;1.65;;
35550;SDS011;21655;46.056;13.616;2023-07-28T08:19:06;8.88;;;1.80;;
35550;SDS011;21655;46.056;13.616;2023-07-28T08:21:32;9.63;;;2.05;;
35550;SDS011;21655;46.056;13.616;2023-07-28T08:24:01;11.02;;;2.22;;
35550;SDS011;21655;46.056;13.616;2023-07-28T08:26:28;13.50;;;2.17;;
35550;SDS011;21655;46.056;13.616;2023-07-28T08:28:54;8.05;;;2.22;;
35550;SDS011;21655;46.056;13.616;2023-07-28T08:31:20;11.00;;;2.42;;
35550;SDS011;21655;46.056;13.616;2023-07-28T08:33:45;17.05;;;2.25;;
35550;SDS011;21655;46.056;13.616;2023-07-28T08:36:11;11.35;;;2.13;;
35550;SDS011;21655;46.056;13.616;2023-07-28T08:38:36;6.70;;;1.73;;
35550;SDS011;21655;46.056;13.616;2023-07-28T08:41:02;12.80;;;2.65;;
35550;SDS011;21655;46.056;13.616;2023-07-28T08:43:28;6.68;;;2.15;;
35550;SDS011;21655;46.056;13.616;2023-07-28T08:45:53;6.32;;;1.77;;
35550;SDS011;21655;46.056;13.616;2023-07-28T08:48:20;9.65;;;2.20;;
35550;SDS011;21655;46.056;13.616;2023-07-28T08:50:45;10.98;;;2.00;;
35550;SDS011;21655;46.056;13.616;2023-07-28T08:53:11;7.05;;;1.55;;
35550;SDS011;21655;46.056;13.616;2023-07-28T08:55:37;10.45;;;2.05;;
35550;SDS011;21655;46.056;13.616;2023-07-28T08:58:18;9.85;;;1.73;;
35550;SDS011;21655;46.056;13.616;2023-07-28T09:00:49;17.85;;;2.10;;
35550;SDS011;21655;46.056;13.616;2023-07-28T09:03:16;9.82;;;1.92;;
35550;SDS011;21655;46.056;13.616;2023-07-28T09:05:45;7.00;;;1.80;;
35550;SDS011;21655;46.056;13.616;2023-07-28T09:08:14;7.35;;;1.80;;
35550;SDS011;21655;46.056;13.616;2023-07-28T09:13:16;5.50;;;1.15;;
35550;SDS011;21655;46.056;13.616;2023-07-28T09:15:45;5.68;;;1.25;;
35550;SDS011;21655;46.056;13.616;2023-07-28T09:18:12;7.05;;;1.60;;
35550;SDS011;21655;46.056;13.616;2023-07-28T09:20:40;5.85;;;1.90;;
35550;SDS011;21655;46.056;13.616;2023-07-28T09:23:07;9.35;;;1.58;;
35550;SDS011;21655;46.056;13.616;2023-07-28T09:25:33;9.00;;;1.55;;
35550;SDS011;21655;46.056;13.616;2023-07-28T09:28:00;6.10;;;1.50;;
35550;SDS011;21655;46.056;13.616;2023-07-28T09:30:26;3.15;;;1.20;;
35550;SDS011;21655;46.056;13.616;2023-07-28T09:32:53;1.85;;;0.90;;
35550;SDS011;21655;46.056;13.616;2023-07-28T09:35:20;2.78;;;0.90;;
35550;SDS011;21655;46.056;13.616;2023-07-28T09:37:47;5.70;;;1.17;;
35550;SDS011;21655;46.056;13.616;2023-07-28T09:40:18;2.13;;;1.20;;
35550;SDS011;21655;46.056;13.616;2023-07-28T09:42:46;2.95;;;0.90;;
35550;SDS011;21655;46.056;13.616;2023-07-28T09:45:16;5.57;;;1.23;;
35550;SDS011;21655;46.056;13.616;2023-07-28T09:47:44;3.33;;;1.23;;
35550;SDS011;21655;46.056;13.616;2023-07-28T09:50:10;3.55;;;1.10;;
35550;SDS011;21655;46.056;13.616;2023-07-28T09:52:39;4.43;;;1.20;;
35550;SDS011;21655;46.056;13.616;2023-07-28T09:55:09;6.13;;;1.73;;
35550;SDS011;21655;46.056;13.616;2023-07-28T09:57:41;3.67;;;0.95;;
35550;SDS011;21655;46.056;13.616;2023-07-28T10:00:11;2.05;;;1.25;;
35550;SDS011;21655;46.056;13.616;2023-07-28T10:02:38;3.55;;;0.90;;
35550;SDS011;21655;46.056;13.616;2023-07-28T10:05:05;2.03;;;0.93;;
35550;SDS011;21655;46.056;13.616;2023-07-28T10:07:33;7.70;;;1.38;;
35550;SDS011;21655;46.056;13.616;2023-07-28T10:10:07;4.27;;;1.43;;
35550;SDS011;21655;46.056;13.616;2023-07-28T10:12:39;6.28;;;1.25;;
35550;SDS011;21655;46.056;13.616;2023-07-28T10:15:15;2.47;;;1.20;;
35550;SDS011;21655;46.056;13.616;2023-07-28T10:17:45;2.00;;;1.02;;
35550;SDS011;21655;46.056;13.616;2023-07-28T10:23:14;3.05;;;1.20;;
35550;SDS011;21655;46.056;13.616;2023-07-28T10:25:42;3.50;;;1.45;;
35550;SDS011;21655;46.056;13.616;2023-07-28T10:31:00;4.30;;;1.20;;
35550;SDS011;21655;46.056;13.616;2023-07-28T10:33:30;2.03;;;1.30;;
35550;SDS011;21655;46.056;13.616;2023-07-28T10:36:09;5.90;;;1.58;;
35550;SDS011;21655;46.056;13.616;2023-07-28T10:38:37;4.18;;;1.30;;
35550;SDS011;21655;46.056;13.616;2023-07-28T10:41:06;4.72;;;1.40;;
35550;SDS011;21655;46.056;13.616;2023-07-28T10:43:38;3.38;;;1.30;;
35550;SDS011;21655;46.056;13.616;2023-07-28T10:46:04;2.38;;;1.10;;
35550;SDS011;21655;46.056;13.616;2023-07-28T10:48:31;2.92;;;1.30;;
35550;SDS011;21655;46.056;13.616;2023-07-28T10:50:57;3.25;;;1.40;;
35550;SDS011;21655;46.056;13.616;2023-07-28T10:53:22;7.20;;;1.30;;
35550;SDS011;21655;46.056;13.616;2023-07-28T10:55:47;4.07;;;1.63;;
35550;SDS011;21655;46.056;13.616;2023-07-28T10:58:13;5.25;;;1.40;;
35550;SDS011;21655;46.056;13.616;2023-07-28T11:00:39;10.70;;;1.70;;
35550;SDS011;21655;46.056;13.616;2023-07-28T11:03:04;3.97;;;1.30;;
35550;SDS011;21655;46.056;13.616;2023-07-28T11:05:30;3.92;;;1.42;;
35550;SDS011;21655;46.056;13.616;2023-07-28T11:07:59;3.85;;;1.40;;
35550;SDS011;21655;46.056;13.616;2023-07-28T11:10:28;5.10;;;2.10;;
35550;SDS011;21655;46.056;13.616;2023-07-28T11:12:54;2.63;;;1.42;;
35550;SDS011;21655;46.056;13.616;2023-07-28T11:15:24;4.28;;;1.55;;
35550;SDS011;21655;46.056;13.616;2023-07-28T11:17:50;3.42;;;1.40;;
35550;SDS011;21655;46.056;13.616;2023-07-28T11:22:43;3.05;;;1.23;;
35550;SDS011;21655;46.056;13.616;2023-07-28T11:25:09;3.78;;;1.45;;
35550;SDS011;21655;46.056;13.616;2023-07-28T11:27:36;9.23;;;1.50;;
35550;SDS011;21655;46.056;13.616;2023-07-28T11:30:02;2.92;;;1.52;;
35550;SDS011;21655;46.056;13.616;2023-07-28T11:32:32;3.60;;;1.52;;
35550;SDS011;21655;46.056;13.616;2023-07-28T11:35:03;3.67;;;1.50;;
35550;SDS011;21655;46.056;13.616;2023-07-28T11:37:29;3.78;;;1.55;;
35550;SDS011;21655;46.056;13.616;2023-07-28T11:39:55;3.13;;;1.38;;
35550;SDS011;21655;46.056;13.616;2023-07-28T11:42:22;2.22;;;1.40;;
35550;SDS011;21655;46.056;13.616;2023-07-28T11:44:47;3.53;;;1.67;;
35550;SDS011;21655;46.056;13.616;2023-07-28T11:47:17;4.53;;;1.52;;
35550;SDS011;21655;46.056;13.616;2023-07-28T11:49:47;3.92;;;1.50;;
35550;SDS011;21655;46.056;13.616;2023-07-28T11:52:14;4.05;;;1.50;;
35550;SDS011;21655;46.056;13.616;2023-07-28T11:54:40;3.92;;;1.50;;
35550;SDS011;21655;46.056;13.616;2023-07-28T11:57:06;2.60;;;1.42;;
35550;SDS011;21655;46.056;13.616;2023-07-28T11:59:34;3.67;;;1.70;;
35550;SDS011;21655;46.056;13.616;2023-07-28T12:02:03;5.95;;;1.58;;
35550;SDS011;21655;46.056;13.616;2023-07-28T12:04:31;3.97;;;1.58;;
35550;SDS011;21655;46.056;13.616;2023-07-28T12:12:11;6.32;;;1.65;;
35550;SDS011;21655;46.056;13.616;2023-07-28T12:14:38;3.85;;;1.90;;
35550;SDS011;21655;46.056;13.616;2023-07-28T12:17:11;3.42;;;1.42;;
35550;SDS011;21655;46.056;13.616;2023-07-28T12:19:41;3.40;;;1.67;;
35550;SDS011;21655;46.056;13.616;2023-07-28T12:22:08;5.45;;;1.77;;
35550;SDS011;21655;46.056;13.616;2023-07-28T12:24:33;3.58;;;1.60;;
35550;SDS011;21655;46.056;13.616;2023-07-28T12:26:59;3.78;;;1.60;;
35550;SDS011;21655;46.056;13.616;2023-07-28T12:29:25;3.53;;;1.80;;
35550;SDS011;21655;46.056;13.616;2023-07-28T12:31:50;5.22;;;1.70;;
35550;SDS011;21655;46.056;13.616;2023-07-28T12:34:15;3.38;;;1.55;;
35550;SDS011;21655;46.056;13.616;2023-07-28T12:36:41;3.15;;;1.50;;
35550;SDS011;21655;46.056;13.616;2023-07-28T12:39:06;3.97;;;1.60;;
35550;SDS011;21655;46.056;13.616;2023-07-28T12:41:32;6.47;;;1.40;;
35550;SDS011;21655;46.056;13.616;2023-07-28T12:43:58;4.43;;;1.60;;
35550;SDS011;21655;46.056;13.616;2023-07-28T12:46:23;4.15;;;1.60;;
35550;SDS011;21655;46.056;13.616;2023-07-28T12:48:49;5.13;;;1.42;;
35550;SDS011;21655;46.056;13.616;2023-07-28T12:51:14;3.33;;;1.58;;
35550;SDS011;21655;46.056;13.616;2023-07-28T12:53:40;4.93;;;1.92;;
35550;SDS011;21655;46.056;13.616;2023-07-28T12:56:05;2.65;;;1.50;;
35550;SDS011;21655;46.056;13.616;2023-07-28T12:58:31;4.30;;;1.60;;
35550;SDS011;21655;46.056;13.616;2023-07-28T13:00:58;3.53;;;1.63;;
35550;SDS011;21655;46.056;13.616;2023-07-28T13:03:26;2.38;;;1.23;;
35550;SDS011;21655;46.056;13.616;2023-07-28T13:05:51;4.78;;;1.60;;
35550;SDS011;21655;46.056;13.616;2023-07-28T13:08:17;2.72;;;1.38;;
35550;SDS011;21655;46.056;13.616;2023-07-28T13:10:42;4.68;;;1.50;;
35550;SDS011;21655;46.056;13.616;2023-07-28T13:13:08;4.65;;;1.48;;
35550;SDS011;21655;46.056;13.616;2023-07-28T13:15:33;3.33;;;1.58;;
35550;SDS011;21655;46.056;13.616;2023-07-28T13:17:59;3.85;;;1.70;;
35550;SDS011;21655;46.056;13.616;2023-07-28T13:20:24;7.75;;;2.00;;
35550;SDS011;21655;46.056;13.616;2023-07-28T13:22:50;5.00;;;1.65;;
35550;SDS011;21655;46.056;13.616;2023-07-28T13:25:15;3.65;;;1.80;;
35550;SDS011;21655;46.056;13.616;2023-07-28T13:27:41;5.32;;;1.77;;
35550;SDS011;21655;46.056;13.616;2023-07-28T13:30:06;3.65;;;1.52;;
35550;SDS011;21655;46.056;13.616;2023-07-28T13:32:32;3.20;;;1.38;;
35550;SDS011;21655;46.056;13.616;2023-07-28T13:34:58;5.80;;;1.73;;
35550;SDS011;21655;46.056;13.616;2023-07-28T13:37:23;6.25;;;1.98;;
35550;SDS011;21655;46.056;13.616;2023-07-28T13:39:49;3.28;;;1.50;;
35550;SDS011;21655;46.056;13.616;2023-07-28T13:42:14;4.47;;;1.92;;
35550;SDS011;21655;46.056;13.616;2023-07-28T13:44:41;6.75;;;1.95;;
35550;SDS011;21655;46.056;13.616;2023-07-28T13:47:07;3.35;;;1.63;;
35550;SDS011;21655;46.056;13.616;2023-07-28T13:49:33;4.93;;;2.03;;
35550;SDS011;21655;46.056;13.616;2023-07-28T13:52:02;4.28;;;1.60;;
35550;SDS011;21655;46.056;13.616;2023-07-28T13:54:28;3.72;;;1.90;;
35550;SDS011;21655;46.056;13.616;2023-07-28T13:56:54;4.30;;;1.60;;
35550;SDS011;21655;46.056;13.616;2023-07-28T13:59:19;4.35;;;1.67;;
35550;SDS011;21655;46.056;13.616;2023-07-28T14:01:44;3.67;;;1.70;;
35550;SDS011;21655;46.056;13.616;2023-07-28T14:04:10;4.45;;;1.70;;
35550;SDS011;21655;46.056;13.616;2023-07-28T14:06:35;3.47;;;1.90;;
35550;SDS011;21655;46.056;13.616;2023-07-28T14:09:01;3.95;;;1.80;;
35550;SDS011;21655;46.056;13.616;2023-07-28T14:11:26;3.55;;;1.60;;
35550;SDS011;21655;46.056;13.616;2023-07-28T14:13:51;4.28;;;1.80;;
35550;SDS011;21655;46.056;13.616;2023-07-28T14:16:17;2.85;;;1.60;;
35550;SDS011;21655;46.056;13.616;2023-07-28T14:18:42;4.35;;;1.60;;
35550;SDS011;21655;46.056;13.616;2023-07-28T14:21:08;4.03;;;2.15;;
35550;SDS011;21655;46.056;13.616;2023-07-28T14:23:33;4.97;;;1.85;;
35550;SDS011;21655;46.056;13.616;2023-07-28T14:25:58;4.30;;;1.90;;
35550;SDS011;21655;46.056;13.616;2023-07-28T14:28:24;3.22;;;1.80;;
35550;SDS011;21655;46.056;13.616;2023-07-28T14:30:50;3.30;;;1.70;;
35550;SDS011;21655;46.056;13.616;2023-07-28T14:33:17;3.20;;;1.40;;
35550;SDS011;21655;46.056;13.616;2023-07-28T14:35:43;3.88;;;1.75;;
35550;SDS011;21655;46.056;13.616;2023-07-28T14:38:10;7.00;;;2.15;;
35550;SDS011;21655;46.056;13.616;2023-07-28T14:40:36;4.38;;;1.90;;
35550;SDS011;21655;46.056;13.616;2023-07-28T14:43:02;4.28;;;1.92;;
35550;SDS011;21655;46.056;13.616;2023-07-28T14:45:28;5.18;;;1.88;;
35550;SDS011;21655;46.056;13.616;2023-07-28T14:47:53;5.50;;;1.95;;
35550;SDS011;21655;46.056;13.616;2023-07-28T14:50:19;3.75;;;1.75;;
35550;SDS011;21655;46.056;13.616;2023-07-28T14:52:46;7.70;;;1.85;;